Conakry, Guinea
Current Conditions -  °F | °C
As of 1:00 PM on Thursday 23 Oct 2014 (Local Time) from GGOV Reporting Station
Broken Clouds Broken Clouds  
Wind Chill: 32°   Ceiling: 1400
Heat Index: 39°   Visibility: 6mi
Dew Point: 25°   Wind: 12mph
Humidity: 66%   Direction: 340°NNW
Pressure: 29.88"   Gusts: NA
Location:  9.55°N, 13.67°W
Report Text: GGOV 231300Z 34010KT 9999 BKN014TCU 32/25 Q1012 NOSIG
Loading
Personal Weather Stations






























Interactive Weather Map
Tropical Storm Tracking
New forecast layout! Learn more

10-Day Weather Forecast

Advertisements
Track Severe Weather on mobile